Time;durP1;ratioP1;P1;durP2;ratioP2;P2;SDS_P1;SDS_P2;PMS_P1;PMS_P2;Temp;Humidity;BMP_temperature;BMP_pressure;BME280_temperature;BME280_humidity;BME280_pressure;Samples;Min_cycle;Max_cycle;Signal;HPM_P1;HPM_P2
2023/01/02 00:00:17;;;;;;;6.23;2.57;;;8.00;99.90;;;8.77;100.00;98154.94;5055418;28;20488;-78
2023/01/02 00:02:50;;;;;;;6.20;2.30;;;8.00;99.90;;;8.76;100.00;98142.88;5058643;28;20553;-78
2023/01/02 00:05:19;;;;;;;13.73;2.80;;;8.00;99.90;;;8.77;100.00;98141.09;5057063;28;20487;-77
2023/01/02 00:07:50;;;;;;;9.57;2.30;;;8.00;99.90;;;8.79;100.00;98141.72;5048327;28;20530;-78
2023/01/02 00:10:19;;;;;;;22.47;3.00;;;8.10;99.90;;;8.78;100.00;98140.91;5056647;28;20481;-77
2023/01/02 00:12:49;;;;;;;4.77;2.50;;;8.00;99.90;;;8.78;100.00;98140.13;5048317;28;20956;-78
2023/01/02 00:15:19;;;;;;;7.30;2.50;;;8.00;99.90;;;8.80;100.00;98143.34;5051487;28;20530;-78
2023/01/02 00:17:49;;;;;;;9.17;2.67;;;8.10;99.90;;;8.81;100.00;98147.59;5052186;28;20485;-78
2023/01/02 00:20:23;;;;;;;9.03;3.00;;;8.10;99.90;;;8.80;100.00;98146.78;5053868;28;20538;-78
2023/01/02 00:22:53;;;;;;;10.53;2.13;;;8.10;99.90;;;8.79;100.00;98141.72;5053707;28;20525;-77
2023/01/02 00:25:23;;;;;;;7.03;2.80;;;8.10;99.90;;;8.80;100.00;98133.75;5052190;28;20555;-78
2023/01/02 00:27:55;;;;;;;11.40;3.33;;;8.10;99.90;;;8.79;100.00;98131.28;5052722;28;20548;-77
2023/01/02 00:30:24;;;;;;;4.70;2.47;;;8.10;99.90;;;8.79;100.00;98131.28;5052787;28;20548;-78
2023/01/02 00:32:54;;;;;;;4.40;2.47;;;8.10;99.90;;;8.79;100.00;98121.69;5053959;28;21040;-77
2023/01/02 00:35:23;;;;;;;9.27;3.13;;;8.10;99.90;;;8.78;100.00;98124.47;5052505;28;20456;-78
2023/01/02 00:37:55;;;;;;;7.40;2.43;;;8.10;99.90;;;8.76;100.00;98119.41;5051127;28;20465;-78
2023/01/02 00:40:24;;;;;;;7.53;2.53;;;8.00;99.90;;;8.74;100.00;98125.81;5051518;28;20559;-77
2023/01/02 00:42:54;;;;;;;4.67;2.47;;;8.00;99.90;;;8.75;100.00;98119.59;5054006;28;20485;-78
2023/01/02 00:45:23;;;;;;;10.70;1.90;;;8.10;99.90;;;8.75;100.00;98123.00;5050679;28;20476;-78
2023/01/02 00:47:52;;;;;;;5.00;2.43;;;8.10;99.90;;;8.72;100.00;98120.75;5053905;28;20500;-77
2023/01/02 00:50:23;;;;;;;15.37;2.97;;;8.00;99.90;;;8.68;100.00;98118.69;5053365;28;20529;-77
2023/01/02 00:52:54;;;;;;;4.83;2.63;;;7.90;99.90;;;8.69;100.00;98121.09;5053575;28;20529;-78
2023/01/02 00:55:24;;;;;;;9.03;2.07;;;8.00;99.90;;;8.72;100.00;98130.34;5051987;28;20464;-77
2023/01/02 00:57:53;;;;;;;3.63;2.50;;;8.00;99.90;;;8.70;100.00;98121.91;5052254;28;20468;-77
2023/01/02 01:00:22;;;;;;;5.90;2.60;;;8.00;99.90;;;8.69;100.00;98120.28;5052924;28;20540;-77
2023/01/02 01:02:57;;;;;;;7.87;2.80;;;7.90;99.90;;;8.68;100.00;98119.47;5052397;28;20559;-78
2023/01/02 01:05:28;;;;;;;9.20;2.40;;;8.00;99.90;;;8.66;100.00;98120.63;5052297;28;20461;-78
2023/01/02 01:07:59;;;;;;;3.60;2.00;;;8.10;99.90;;;8.58;100.00;98118.88;5052233;28;20550;-78
2023/01/02 01:10:30;;;;;;;8.50;2.77;;;7.90;99.90;;;8.61;100.00;98118.53;5053569;28;20468;-78
2023/01/02 01:13:00;;;;;;;7.10;2.70;;;8.00;99.90;;;8.58;100.00;98111.88;5055336;28;20477;-78
2023/01/02 01:15:30;;;;;;;5.33;2.63;;;7.90;99.90;;;8.61;100.00;98112.53;5052752;28;20465;-77
2023/01/02 01:18:01;;;;;;;9.77;3.03;;;7.90;99.90;;;8.61;100.00;98109.94;5052709;28;20464;-78
2023/01/02 01:20:31;;;;;;;19.30;3.40;;;7.90;99.90;;;8.61;100.00;98118.53;5052320;28;20466;-78
2023/01/02 01:23:03;;;;;;;6.00;2.43;;;7.90;99.90;;;8.61;100.00;98128.16;5054080;28;20518;-77
2023/01/02 01:25:34;;;;;;;12.70;3.10;;;8.00;99.90;;;8.60;100.00;98135.19;5054127;28;20483;-77
2023/01/02 01:28:04;;;;;;;5.37;3.03;;;7.90;99.90;;;8.61;100.00;98136.78;5055034;28;20513;-77
2023/01/02 01:30:34;;;;;;;9.47;2.70;;;8.00;99.90;;;8.57;100.00;98132.91;5054954;28;20468;-78
2023/01/02 01:33:04;;;;;;;4.40;2.20;;;7.90;99.90;;;8.56;100.00;98128.69;5056051;28;20456;-78
2023/01/02 01:35:34;;;;;;;5.90;3.10;;;7.90;99.90;;;8.53;100.00;98122.03;5055477;28;20913;-78
2023/01/02 01:38:05;;;;;;;9.67;2.63;;;7.80;99.90;;;8.53;100.00;98126.41;5054434;28;20509;-78
2023/01/02 01:40:39;;;;;;;9.37;2.33;;;7.80;99.90;;;8.50;100.00;98111.13;5053119;28;21023;-77
2023/01/02 01:43:14;;;;;;;9.37;2.80;;;7.80;99.90;;;8.46;100.00;98121.09;5055274;28;20533;-77
2023/01/02 01:45:45;;;;;;;6.13;3.27;;;7.70;99.90;;;8.50;100.00;98113.75;5056313;28;20468;-78
2023/01/02 01:48:17;;;;;;;3.90;2.27;;;7.80;99.90;;;8.50;100.00;98117.13;5055799;28;20856;-78
2023/01/02 01:50:47;;;;;;;4.77;2.57;;;7.80;99.90;;;8.46;100.00;98105.44;5056477;28;20465;-78
2023/01/02 01:53:22;;;;;;;8.53;2.13;;;7.80;99.90;;;8.43;100.00;98111.00;5057076;28;20475;-78
2023/01/02 01:55:58;;;;;;;5.37;2.47;;;7.70;99.90;;;8.43;100.00;98115.41;5051963;28;21010;-77
2023/01/02 01:58:32;;;;;;;7.10;2.20;;;7.80;99.90;;;8.42;100.00;98111.16;5055226;28;20978;-78
2023/01/02 02:01:03;;;;;;;8.67;2.60;;;7.80;99.90;;;8.40;100.00;98121.75;5055109;28;20534;-78
2023/01/02 02:03:36;;;;;;;11.03;2.40;;;7.80;99.90;;;8.40;100.00;98115.75;5057354;28;20500;-77
2023/01/02 02:06:06;;;;;;;5.80;1.90;;;7.70;99.90;;;8.36;100.00;98115.28;5058950;28;20464;-78
2023/01/02 02:08:47;;;;;;;10.00;2.80;;;7.60;99.90;;;8.37;100.00;98113.47;5056720;28;20541;-77
2023/01/02 02:11:19;;;;;;;9.10;2.90;;;7.60;99.90;;;8.35;100.00;98102.41;5059317;28;20477;-77
2023/01/02 02:13:49;;;;;;;6.53;2.37;;;7.60;99.90;;;8.33;100.00;98104.41;5057061;28;20461;-78
2023/01/02 02:16:35;;;;;;;5.40;2.40;;;7.60;99.90;;;8.31;100.00;98111.56;5055354;28;20472;-78
2023/01/02 02:19:51;;;;;;;5.73;2.67;;;7.60;99.90;;;8.26;100.00;98103.41;5059074;28;20474;-77
2023/01/02 02:22:53;;;;;;;6.10;2.77;;;7.50;99.90;;;8.24;100.00;98105.38;5032577;28;21021;-77
2023/01/02 02:26:31;;;;;;;4.80;2.20;;;7.50;99.90;;;8.23;100.00;98108.94;5057028;28;20887;-78
2023/01/02 02:30:07;;;;;;;6.70;2.33;;;7.50;99.90;;;8.20;100.00;98104.91;5059159;28;20500;-78
2023/01/02 02:33:02;;;;;;;14.23;2.67;;;7.50;99.90;;;8.18;100.00;98104.28;5056989;28;20449;-78
2023/01/02 02:35:56;;;;;;;12.03;2.37;;;7.40;99.90;;;8.17;100.00;98089.63;5056353;28;20456;-77
2023/01/02 02:38:57;;;;;;;11.23;3.53;;;7.50;99.90;;;8.16;100.00;98093.19;5057546;28;21090;-78
2023/01/02 02:41:35;;;;;;;6.83;3.67;;;7.50;99.90;;;8.12;100.00;98097.16;5056339;28;20465;-77
2023/01/02 02:44:26;;;;;;;10.00;2.80;;;7.40;99.90;;;8.11;100.00;98100.72;5056568;28;20457;-77
2023/01/02 02:47:06;;;;;;;4.53;2.60;;;7.40;99.90;;;8.10;100.00;98094.69;5055359;28;20827;-78
2023/01/02 02:49:49;;;;;;;6.63;2.83;;;7.40;99.90;;;8.09;100.00;98094.84;5055682;28;20496;-77
2023/01/02 02:52:27;;;;;;;5.13;2.30;;;7.40;99.90;;;8.08;100.00;98095.84;5055800;28;20468;-78
2023/01/02 02:55:05;;;;;;;12.33;2.60;;;7.30;99.90;;;8.07;100.00;98091.63;5056400;28;20452;-77
2023/01/02 02:57:36;;;;;;;10.70;2.20;;;7.40;99.90;;;8.01;100.00;98082.72;5057864;28;20974;-77
2023/01/02 03:00:09;;;;;;;3.83;2.10;;;7.30;99.90;;;8.01;100.00;98079.28;5056793;28;20463;-79
2023/01/02 03:02:42;;;;;;;11.10;2.73;;;7.20;99.90;;;7.96;100.00;98078.97;5055932;28;20802;-78
2023/01/02 03:05:23;;;;;;;8.47;2.50;;;7.20;99.90;;;7.90;100.00;98085.69;5058290;28;20464;-77
2023/01/02 03:08:04;;;;;;;4.60;2.73;;;7.10;99.90;;;7.96;100.00;98092.81;5058586;28;20485;-77
2023/01/02 03:10:46;;;;;;;10.90;2.50;;;7.30;99.90;;;7.95;100.00;98085.16;5057381;28;20880;-77
2023/01/02 03:13:26;;;;;;;3.47;2.37;;;7.30;99.90;;;7.93;100.00;98087.13;5056449;28;20978;-77
2023/01/02 03:16:05;;;;;;;9.60;3.20;;;7.20;99.90;;;7.83;100.00;98083.91;5058560;28;20456;-77
2023/01/02 03:18:44;;;;;;;9.83;2.50;;;7.00;99.90;;;7.89;100.00;98085.84;5058108;28;20457;-77
2023/01/02 03:21:21;;;;;;;4.20;2.07;;;7.10;99.90;;;7.87;100.00;98077.41;5058287;28;20502;-77
2023/01/02 03:24:05;;;;;;;4.97;2.10;;;7.10;99.90;;;7.84;100.00;98086.34;5059317;28;20452;-78
2023/01/02 03:26:39;;;;;;;6.30;2.17;;;7.10;99.90;;;7.85;100.00;98085.34;5057243;28;20464;-77
2023/01/02 03:29:17;;;;;;;4.93;2.20;;;7.10;99.90;;;7.88;100.00;98079.03;5057680;28;20522;-78
2023/01/02 03:31:54;;;;;;;15.53;2.77;;;7.10;99.90;;;7.84;100.00;98069.94;5057569;28;20452;-77
2023/01/02 03:34:32;;;;;;;6.93;3.03;;;7.10;99.90;;;7.82;100.00;98071.88;5056357;28;20456;-78
2023/01/02 03:37:08;;;;;;;10.00;2.83;;;7.10;99.90;;;7.76;100.00;98070.75;5058055;28;20461;-78
2023/01/02 03:39:48;;;;;;;7.60;2.20;;;7.00;99.90;;;7.76;100.00;98077.75;5056498;28;20547;-78
2023/01/02 03:42:27;;;;;;;6.33;2.57;;;7.10;99.90;;;7.77;100.00;98079.38;5054811;28;20489;-77
2023/01/02 03:45:06;;;;;;;11.43;2.57;;;7.10;99.90;;;7.75;100.00;98095.16;5055809;28;20459;-77
2023/01/02 03:47:45;;;;;;;10.07;2.33;;;7.10;99.90;;;7.76;100.00;98086.38;5055315;28;20457;-77
2023/01/02 03:50:23;;;;;;;4.17;2.13;;;7.00;99.90;;;7.71;100.00;98104.28;5055394;28;20914;-77
2023/01/02 03:52:53;;;;;;;9.70;2.40;;;6.90;99.90;;;7.71;100.00;98104.28;5056399;28;20472;-77
2023/01/02 03:55:25;;;;;;;5.20;2.00;;;7.00;99.90;;;7.70;100.00;98101.84;5055835;28;20476;-78
2023/01/02 03:58:01;;;;;;;11.90;2.73;;;7.00;99.90;;;7.69;100.00;98110.63;5055142;28;21012;-77
2023/01/02 04:00:41;;;;;;;5.90;2.50;;;6.90;99.90;;;7.65;100.00;98111.94;5055510;28;20468;-78
2023/01/02 04:03:16;;;;;;;9.00;2.77;;;6.90;99.90;;;7.62;100.00;98107.06;5054447;28;20464;-78
2023/01/02 04:05:53;;;;;;;12.10;2.67;;;6.80;99.90;;;7.56;100.00;98109.38;5054632;28;20471;-77
2023/01/02 04:08:28;;;;;;;7.63;2.83;;;6.80;99.90;;;7.57;100.00;98112.78;5055216;28;20541;-77
2023/01/02 04:11:01;;;;;;;17.23;2.43;;;6.80;99.90;;;7.56;100.00;98117.19;5051437;28;21100;-74
2023/01/02 04:13:38;;;;;;;7.43;3.40;;;6.90;99.90;;;7.55;100.00;98099.94;5052448;28;20477;-77
2023/01/02 04:16:17;;;;;;;6.63;2.20;;;6.90;99.90;;;7.57;100.00;98108.38;5051398;28;20465;-78
2023/01/02 04:18:51;;;;;;;11.70;2.50;;;6.80;99.90;;;7.54;100.00;98116.53;5050793;28;20468;-73
2023/01/02 04:21:29;;;;;;;6.07;2.90;;;6.70;99.90;;;7.50;100.00;98112.63;5050924;28;20484;-77
2023/01/02 04:24:05;;;;;;;12.43;6.47;;;6.70;99.90;;;7.50;100.00;98117.00;5052107;28;20962;-77
2023/01/02 04:26:43;;;;;;;5.07;2.87;;;6.70;99.90;;;7.50;100.00;98114.41;5052090;28;20464;-77
2023/01/02 04:29:12;;;;;;;10.07;2.87;;;6.60;99.90;;;7.51;100.00;98113.44;5053671;28;20488;-78
2023/01/02 04:31:49;;;;;;;7.73;2.80;;;6.70;99.90;;;7.50;100.00;98114.41;5053184;28;20471;-73
2023/01/02 04:34:21;;;;;;;4.53;2.47;;;6.70;99.90;;;7.47;100.00;98112.97;5053616;28;20464;-77
2023/01/02 04:36:52;;;;;;;9.33;2.60;;;6.60;99.90;;;7.48;100.00;98119.78;5053103;28;20460;-77
2023/01/02 04:39:27;;;;;;;11.97;2.77;;;6.70;99.90;;;7.49;100.00;98121.44;5057584;28;20496;-77
2023/01/02 04:41:57;;;;;;;7.00;2.60;;;6.80;99.90;;;7.48;100.00;98114.59;5054879;28;20511;-77
2023/01/02 04:44:27;;;;;;;8.27;3.03;;;6.70;99.90;;;7.48;100.00;98113.78;5056122;28;20496;-77
2023/01/02 04:46:59;;;;;;;9.13;2.80;;;6.70;99.90;;;7.47;100.00;98127.75;5055933;28;20469;-77
2023/01/02 04:49:29;;;;;;;8.23;2.30;;;6.70;99.90;;;7.51;100.00;98123.84;5054331;28;20634;-77
2023/01/02 04:52:02;;;;;;;8.10;2.37;;;6.80;99.90;;;7.54;100.00;98136.53;5054871;28;20452;-77
2023/01/02 04:54:31;;;;;;;4.10;1.90;;;6.80;99.90;;;7.57;100.00;98128.38;5054237;28;20981;-78
2023/01/02 04:57:02;;;;;;;13.73;3.07;;;6.90;99.90;;;7.60;100.00;98125.47;5052636;28;20479;-78
2023/01/02 04:59:32;;;;;;;10.97;4.10;;;6.90;99.90;;;7.64;100.00;98118.13;5056335;28;20513;-78
2023/01/02 05:02:02;;;;;;;8.30;3.47;;;7.00;99.90;;;7.64;100.00;98118.94;5056151;28;20461;-78
2023/01/02 05:04:32;;;;;;;2.80;2.00;;;7.00;99.90;;;7.60;100.00;98123.66;5056436;28;20453;-78
2023/01/02 05:07:03;;;;;;;11.50;2.90;;;6.90;99.90;;;7.59;100.00;98121.25;5055128;28;20460;-78
2023/01/02 05:09:33;;;;;;;7.13;2.70;;;6.80;99.90;;;7.65;100.00;98127.56;5055870;28;20475;-74
2023/01/02 05:12:05;;;;;;;22.70;9.77;;;6.90;99.90;;;7.66;100.00;98121.38;5054514;28;20545;-77
2023/01/02 05:14:35;;;;;;;16.80;2.53;;;6.90;99.90;;;7.68;100.00;98127.22;5054752;28;20540;-77
2023/01/02 05:17:05;;;;;;;4.07;2.87;;;7.00;99.90;;;7.69;100.00;98124.47;5056142;28;20468;-78
2023/01/02 05:19:35;;;;;;;3.37;2.30;;;6.90;99.90;;;7.69;100.00;98121.03;5056139;28;20942;-77
2023/01/02 05:24:52;;;;;;;6.03;2.23;;;7.00;99.90;;;7.77;100.00;98128.84;5057187;28;20469;-78
2023/01/02 05:27:22;;;;;;;9.90;3.00;;;7.00;99.90;;;7.77;100.00;98134.88;5056977;28;20457;-77
2023/01/02 05:29:53;;;;;;;5.60;2.60;;;7.10;99.90;;;7.76;100.00;98130.63;5055528;28;20491;-77
2023/01/02 05:32:23;;;;;;;18.73;2.90;;;7.00;99.90;;;7.80;100.00;98133.72;5057725;28;20511;-78
2023/01/02 05:34:52;;;;;;;6.07;2.20;;;7.00;99.90;;;7.82;100.00;98131.75;5058367;28;20464;-77
2023/01/02 05:37:24;;;;;;;9.23;2.87;;;7.10;99.90;;;7.83;100.00;98130.78;5060793;28;20467;-77
2023/01/02 05:39:53;;;;;;;16.93;2.67;;;7.10;99.90;;;7.81;100.00;98130.13;5076808;28;20470;-78
2023/01/02 05:42:23;;;;;;;5.87;2.57;;;7.10;99.90;;;7.79;100.00;98142.50;5057966;28;20925;-78
2023/01/02 05:44:52;;;;;;;8.03;2.50;;;7.00;99.90;;;7.78;100.00;98151.25;5059052;28;20464;-81
2023/01/02 05:47:23;;;;;;;11.57;2.97;;;7.00;99.90;;;7.81;100.00;98162.16;5060592;28;20536;-77
2023/01/02 05:49:54;;;;;;;9.13;2.67;;;7.00;99.90;;;7.83;100.00;98154.19;5059559;28;20494;-77
2023/01/02 05:52:25;;;;;;;14.93;2.40;;;7.10;99.90;;;7.86;100.00;98153.84;5058523;28;20448;-78
2023/01/02 05:54:54;;;;;;;5.80;2.60;;;7.10;99.90;;;7.83;100.00;98152.41;5059287;28;20556;-78
2023/01/02 05:57:26;;;;;;;16.57;2.10;;;7.10;99.90;;;7.86;100.00;98153.84;5057878;28;20469;-78
2023/01/02 05:59:55;;;;;;;12.57;2.63;;;7.10;99.90;;;7.82;100.00;98152.56;5059431;28;20460;-78
2023/01/02 06:02:24;;;;;;;11.00;2.50;;;7.20;99.90;;;7.87;100.00;98155.50;5060800;28;20955;-79
2023/01/02 06:04:54;;;;;;;8.50;2.27;;;7.30;99.90;;;7.87;100.00;98163.31;5058765;28;20496;-78
2023/01/02 06:07:25;;;;;;;9.27;2.20;;;7.20;99.90;;;7.89;100.00;98158.72;5059146;28;20524;-78
2023/01/02 06:09:54;;;;;;;10.43;2.53;;;7.20;99.90;;;7.90;100.00;98155.97;5059373;28;21039;-78
2023/01/02 06:12:23;;;;;;;8.33;3.27;;;7.20;99.90;;;7.88;100.00;98152.69;5055542;28;20472;-79
2023/01/02 06:14:54;;;;;;;12.67;2.73;;;7.20;99.90;;;7.85;100.00;98153.03;5057130;28;20514;-78
2023/01/02 06:17:24;;;;;;;5.73;2.40;;;7.10;99.90;;;7.82;100.00;98155.16;5056404;28;20496;-78
2023/01/02 06:19:53;;;;;;;7.33;2.43;;;7.20;99.90;;;7.86;100.00;98161.66;5056744;28;20504;-79
2023/01/02 06:22:25;;;;;;;9.80;2.37;;;7.20;99.90;;;7.87;100.00;98161.50;5057246;28;21030;-78
2023/01/02 06:24:55;;;;;;;7.17;2.50;;;7.10;99.90;;;7.90;100.00;98181.19;5057359;28;20464;-78
2023/01/02 06:27:24;;;;;;;9.90;2.53;;;7.20;99.90;;;7.92;100.00;98161.81;5055816;28;20527;-78
2023/01/02 06:29:55;;;;;;;6.73;2.80;;;7.30;99.90;;;7.90;100.00;98162.97;5055429;28;20496;-78
2023/01/02 06:32:26;;;;;;;8.37;2.77;;;7.20;99.90;;;7.90;100.00;98155.97;5055627;28;20893;-78
2023/01/02 06:34:57;;;;;;;12.50;2.77;;;7.20;99.90;;;7.88;100.00;98144.09;5055716;28;20475;-78
2023/01/02 06:37:28;;;;;;;5.73;2.60;;;7.20;99.90;;;7.89;100.00;98150.91;5059083;28;20497;-78
2023/01/02 06:39:57;;;;;;;6.20;2.50;;;7.20;99.90;;;7.97;100.00;98156.09;5059976;28;20464;-78
2023/01/02 06:42:26;;;;;;;19.33;3.10;;;7.40;99.90;;;8.00;100.00;98153.16;5056920;28;20481;-78
2023/01/02 06:44:58;;;;;;;7.43;3.20;;;7.40;99.90;;;8.01;100.00;98166.03;5059552;28;20533;-78
2023/01/02 06:47:27;;;;;;;10.90;3.17;;;7.40;99.90;;;8.03;100.00;98171.06;5056669;28;20496;-78
2023/01/02 06:49:57;;;;;;;6.13;2.60;;;7.40;99.90;;;8.05;100.00;98164.69;5060322;28;20525;-79
2023/01/02 06:52:29;;;;;;;10.97;2.47;;;7.40;99.90;;;8.08;100.00;98142.72;5057743;28;20500;-78
2023/01/02 06:55:00;;;;;;;8.30;3.30;;;7.50;99.90;;;8.08;100.00;98155.75;5056650;28;20461;-79
2023/01/02 06:57:30;;;;;;;11.70;2.60;;;7.50;99.90;;;8.09;100.00;98162.56;5057493;28;20555;-78
2023/01/02 07:00:01;;;;;;;15.37;2.90;;;7.60;99.90;;;8.09;100.00;98172.97;5058341;28;20464;-78
2023/01/02 07:02:32;;;;;;;9.80;3.20;;;7.50;99.90;;;8.13;100.00;98176.88;5058012;28;20515;-78
2023/01/02 07:05:02;;;;;;;10.97;2.60;;;7.50;99.90;;;8.11;100.00;98173.63;5056956;28;20514;-78
2023/01/02 07:07:33;;;;;;;5.97;2.93;;;7.50;99.90;;;8.13;100.00;98152.63;5057909;28;21040;-78
2023/01/02 07:10:02;;;;;;;8.80;2.70;;;7.50;99.90;;;8.11;100.00;98173.63;5058811;28;20456;-78
2023/01/02 07:12:34;;;;;;;6.43;2.30;;;7.50;99.90;;;8.16;100.00;98147.88;5055953;28;20489;-78
2023/01/02 07:15:06;;;;;;;9.67;3.07;;;7.60;99.90;;;8.17;100.00;98166.94;5056764;28;20880;-78
2023/01/02 07:17:36;;;;;;;9.37;2.63;;;7.50;99.90;;;8.19;100.00;98165.78;5057262;28;20467;-78
2023/01/02 07:20:07;;;;;;;12.60;2.87;;;7.60;99.90;;;8.21;100.00;98153.41;5056370;28;20543;-78
2023/01/02 07:22:37;;;;;;;5.37;2.47;;;7.60;99.90;;;8.21;100.00;98158.63;5057200;28;20544;-78
2023/01/02 07:25:08;;;;;;;10.57;3.07;;;7.60;99.90;;;8.21;100.00;98179.47;5057856;28;20518;-78
2023/01/02 07:27:38;;;;;;;10.20;3.80;;;7.50;99.90;;;8.23;100.00;98180.09;5057830;28;20474;-78
2023/01/02 07:30:11;;;;;;;8.40;2.77;;;7.60;99.90;;;8.20;100.00;98180.44;5055843;28;20469;-78
2023/01/02 07:32:42;;;;;;;9.70;2.90;;;7.60;99.90;;;8.22;100.00;98178.50;5057857;28;20452;-79
2023/01/02 07:35:12;;;;;;;16.63;2.90;;;7.60;99.90;;;8.20;100.00;98188.25;5058048;28;20460;-78
2023/01/02 07:37:43;;;;;;;8.80;3.10;;;7.50;99.90;;;8.18;100.00;98192.00;5057351;28;20461;-78
2023/01/02 07:40:13;;;;;;;12.17;2.80;;;7.40;99.90;;;8.17;100.00;98199.00;5057828;28;20469;-78
2023/01/02 07:42:44;;;;;;;10.23;3.83;;;7.50;99.90;;;8.19;100.00;98197.03;5057363;28;20557;-79
2023/01/02 07:45:14;;;;;;;7.40;2.53;;;7.60;99.90;;;8.18;100.00;98200.63;5054732;28;20895;-79
2023/01/02 07:47:45;;;;;;;14.70;3.00;;;7.50;99.90;;;8.18;100.00;98205.03;5055635;28;20546;-78
2023/01/02 07:50:15;;;;;;;13.17;3.00;;;7.50;99.90;;;8.19;100.00;98212.66;5056881;28;20584;-78
2023/01/02 07:52:47;;;;;;;21.37;4.20;;;7.50;99.90;;;8.17;100.00;98222.44;5052465;28;20465;-78
2023/01/02 07:55:16;;;;;;;14.10;3.07;;;7.50;99.90;;;8.18;100.00;98223.25;5054169;28;20502;-78
2023/01/02 07:57:47;;;;;;;8.70;3.70;;;7.50;99.90;;;8.17;100.00;98229.44;5055658;28;20461;-78
2023/01/02 08:00:19;;;;;;;6.77;2.77;;;7.50;99.90;;;8.18;100.00;98231.91;5054665;28;21161;-78
2023/01/02 08:02:51;;;;;;;9.30;2.67;;;7.50;99.90;;;8.19;100.00;98232.72;5054055;28;20460;-78
2023/01/02 08:05:22;;;;;;;10.83;3.60;;;7.50;99.90;;;8.22;100.00;98238.41;5054611;28;20498;-78
2023/01/02 08:07:54;;;;;;;11.87;2.60;;;7.60;99.90;;;8.25;100.00;98243.28;5054962;28;20513;-78
2023/01/02 08:10:25;;;;;;;4.60;2.40;;;7.60;99.90;;;8.24;100.00;98241.63;5054809;28;20479;-79
2023/01/02 08:12:56;;;;;;;11.80;2.73;;;7.60;99.90;;;8.27;100.00;98250.91;5052641;28;20540;-79
2023/01/02 08:15:25;;;;;;;9.43;3.03;;;7.60;99.90;;;8.31;100.00;98247.03;5055180;28;21031;-78
2023/01/02 08:17:57;;;;;;;7.70;2.60;;;7.70;99.90;;;8.33;100.00;98240.66;5056272;28;20468;-78
2023/01/02 08:20:27;;;;;;;7.40;2.87;;;7.80;99.90;;;8.33;100.00;98240.66;5055740;28;21061;-78
2023/01/02 08:22:59;;;;;;;8.00;2.90;;;7.70;99.90;;;8.35;100.00;98238.72;5057835;28;20469;-78
2023/01/02 08:25:28;;;;;;;8.87;2.73;;;7.80;99.90;;;8.33;100.00;98258.88;5054493;28;20450;-78
2023/01/02 08:27:58;;;;;;;10.77;2.60;;;7.70;99.90;;;8.33;100.00;98253.69;5056849;28;20486;-79
2023/01/02 08:30:28;;;;;;;6.83;2.97;;;7.70;99.90;;;8.33;100.00;98266.72;5054816;28;21098;-78
2023/01/02 08:32:59;;;;;;;12.13;2.80;;;7.70;99.90;;;8.38;100.00;98267.03;5057309;28;20495;-78
2023/01/02 08:35:30;;;;;;;6.20;2.80;;;7.70;99.90;;;8.39;100.00;98260.84;5057445;28;21030;-78
2023/01/02 08:38:07;;;;;;;9.13;3.10;;;7.80;99.90;;;8.44;100.00;98260.31;5055846;28;20456;-78
2023/01/02 08:40:38;;;;;;;16.63;3.70;;;7.90;99.90;;;8.47;100.00;98263.41;5056073;28;20484;-78
2023/01/02 08:43:08;;;;;;;11.63;3.30;;;7.90;99.90;;;8.48;100.00;98272.03;5057275;28;20498;-78
2023/01/02 08:45:37;;;;;;;8.73;3.30;;;7.90;99.90;;;8.52;100.00;98265.50;5056626;28;20496;-79
2023/01/02 08:48:07;;;;;;;9.63;2.60;;;7.90;99.90;;;8.56;100.00;98278.06;5054822;28;20503;-78
2023/01/02 08:50:50;;;;;;;13.80;3.73;;;8.00;99.90;;;8.61;100.00;98281.94;5055320;28;20518;-78
2023/01/02 08:53:21;;;;;;;8.03;3.40;;;8.00;99.90;;;8.65;100.00;98293.63;5054585;28;20654;-78
2023/01/02 08:55:50;;;;;;;14.60;4.60;;;8.10;99.90;;;8.68;100.00;98295.94;5054467;28;21030;-79
2023/01/02 08:58:20;;;;;;;22.13;3.57;;;8.20;99.90;;;8.72;100.00;98303.22;5055808;28;20459;-78
2023/01/02 09:00:52;;;;;;;8.80;2.73;;;8.20;99.90;;;8.80;100.00;98291.97;5056301;28;20463;-78
2023/01/02 09:03:21;;;;;;;10.23;3.33;;;8.30;99.90;;;8.90;100.00;98306.44;5054060;28;20525;-78
2023/01/02 09:05:50;;;;;;;12.10;2.87;;;8.40;99.90;;;8.98;100.00;98313.41;5057080;28;20495;-78
2023/01/02 09:08:22;;;;;;;23.17;4.80;;;8.60;99.90;;;9.03;100.00;98311.91;5059141;28;21010;-78
2023/01/02 09:10:51;;;;;;;8.93;2.90;;;8.60;99.90;;;9.08;100.00;98314.81;5059045;28;20510;-78
2023/01/02 09:13:20;;;;;;;9.60;2.43;;;8.60;99.90;;;9.12;100.00;98319.69;5059592;28;20595;-78
2023/01/02 09:15:51;;;;;;;9.03;3.03;;;8.60;99.90;;;9.17;100.00;98315.56;5059259;28;20463;-78
2023/01/02 09:18:22;;;;;;;16.37;3.70;;;8.60;99.90;;;9.21;100.00;98335.13;5059534;28;20507;-79
2023/01/02 09:20:57;;;;;;;7.53;2.40;;;8.70;99.90;;;9.28;100.00;98338.69;5060205;28;20468;-78
2023/01/02 09:23:29;;;;;;;12.73;3.53;;;8.80;99.90;;;9.31;100.00;98335.72;5059781;28;20515;-78
2023/01/02 09:25:59;;;;;;;10.13;2.53;;;8.80;99.90;;;9.36;100.00;98338.63;5060439;28;21150;-78
2023/01/02 09:28:32;;;;;;;17.43;4.03;;;8.90;99.90;;;9.39;100.00;98332.25;5059397;28;20830;-78
2023/01/02 09:31:05;;;;;;;12.77;3.60;;;8.90;99.90;;;9.43;100.00;98339.59;5060311;28;20546;-78
2023/01/02 09:33:41;;;;;;;3.97;2.47;;;8.90;99.90;;;9.48;100.00;98345.09;5060013;28;20449;-78
2023/01/02 09:36:14;;;;;;;17.03;3.40;;;9.00;99.90;;;9.52;100.00;98345.53;5058948;28;20543;-79
2023/01/02 09:38:50;;;;;;;16.87;4.40;;;9.10;99.90;;;9.57;100.00;98361.53;5059121;28;20955;-78
2023/01/02 09:41:33;;;;;;;12.97;2.90;;;9.10;99.90;;;9.61;100.00;98368.03;5060313;28;20529;-79
2023/01/02 09:44:11;;;;;;;19.27;3.30;;;9.10;99.90;;;9.64;100.00;98372.91;5059042;28;20468;-79
2023/01/02 09:46:47;;;;;;;8.90;2.80;;;9.20;99.90;;;9.68;100.00;98373.38;5060608;28;20479;-78
2023/01/02 09:49:20;;;;;;;8.10;2.67;;;9.20;99.90;;;9.72;100.00;98374.66;5058452;28;20526;-79
2023/01/02 09:51:50;;;;;;;10.83;2.67;;;9.30;99.90;;;9.72;100.00;98372.03;5057584;28;20491;-78
2023/01/02 09:54:28;;;;;;;7.60;3.30;;;9.30;99.90;;;9.77;100.00;98383.56;5057008;28;20541;-79
2023/01/02 09:57:23;;;;;;;6.90;2.67;;;9.30;99.90;;;9.81;100.00;98381.44;5060428;28;21485;-78
2023/01/02 10:00:06;;;;;;;16.13;3.90;;;9.40;99.90;;;9.83;100.00;98380.25;5060766;28;20456;-78
2023/01/02 10:03:16;;;;;;;6.00;2.90;;;9.40;99.90;;;9.86;100.00;98382.53;5058878;28;20534;-78
2023/01/02 10:06:05;;;;;;;13.13;2.90;;;9.40;99.90;;;9.90;100.00;98389.03;5058804;28;20468;-78
2023/01/02 10:08:53;;;;;;;15.03;3.20;;;9.40;99.90;;;9.95;100.00;98385.91;5057737;28;20552;-78
2023/01/02 10:11:51;;;;;;;15.47;3.40;;;9.50;99.90;;;9.96;100.00;98387.53;5057915;28;20480;-78
2023/01/02 10:14:36;;;;;;;9.20;3.00;;;9.50;99.90;;;9.99;100.00;98397.63;5057182;28;20590;-79
2023/01/02 10:17:17;;;;;;;3.80;2.53;;;9.50;99.90;;;10.03;100.00;98398.91;5057336;28;20502;-78
2023/01/02 10:19:55;;;;;;;8.27;3.37;;;9.60;99.90;;;10.06;100.00;98393.34;5056992;28;20465;-78
2023/01/02 10:22:33;;;;;;;15.10;4.20;;;9.60;99.90;;;10.09;100.00;98387.75;5057167;28;20467;-78
2023/01/02 10:25:14;;;;;;;9.93;2.90;;;9.70;99.90;;;10.12;100.00;98390.03;5056639;28;20508;-78
2023/01/02 10:27:53;;;;;;;9.40;2.63;;;9.60;99.90;;;10.16;100.00;98388.72;5058536;28;20467;-78
2023/01/02 10:30:26;;;;;;;10.80;2.83;;;9.70;99.90;;;10.17;100.00;98379.88;5058230;28;20461;-78
2023/01/02 10:33:04;;;;;;;10.37;3.00;;;9.70;99.90;;;10.21;100.00;98391.59;5057738;28;20505;-78
2023/01/02 10:35:41;;;;;;;7.30;3.60;;;9.80;99.90;;;10.23;100.00;98397.47;5057224;28;20460;-78
2023/01/02 10:38:13;;;;;;;8.03;3.20;;;9.70;99.90;;;10.26;100.00;98394.50;5058704;28;21029;-78
2023/01/02 10:40:45;;;;;;;11.33;2.80;;;9.80;99.90;;;10.28;100.00;98392.53;5057940;28;20468;-79
2023/01/02 10:43:16;;;;;;;8.93;3.63;;;9.80;99.90;;;10.31;100.00;98386.16;5060052;28;21062;-78
2023/01/02 10:45:46;;;;;;;12.13;3.20;;;9.90;99.90;;;10.36;100.00;98384.63;5058042;28;20461;-78
2023/01/02 10:48:15;;;;;;;10.80;3.63;;;10.00;99.90;;;10.37;100.00;98383.63;5060171;28;20506;-78
2023/01/02 10:50:52;;;;;;;16.13;3.73;;;10.00;99.90;;;10.37;100.00;98382.81;5059182;28;20484;-78
2023/01/02 10:53:29;;;;;;;10.07;3.20;;;10.00;99.90;;;10.40;100.00;98388.50;5055211;28;20500;-78